sensor_id;sensor_type;location;lat;lon;timestamp;temperature;humidity
31542;DHT22;18152;49.986;8.646;2022-10-16T00:01:29;15.00;99.90
31542;DHT22;18152;49.986;8.646;2022-10-16T00:03:56;15.00;99.90
31542;DHT22;18152;49.986;8.646;2022-10-16T00:06:22;15.00;99.90
31542;DHT22;18152;49.986;8.646;2022-10-16T00:08:49;15.00;99.90
31542;DHT22;18152;49.986;8.646;2022-10-16T00:11:18;15.00;99.90
31542;DHT22;18152;49.986;8.646;2022-10-16T00:13:46;15.00;99.90
31542;DHT22;18152;49.986;8.646;2022-10-16T00:16:12;15.00;99.90
31542;DHT22;18152;49.986;8.646;2022-10-16T00:18:38;15.00;99.90
31542;DHT22;18152;49.986;8.646;2022-10-16T00:21:13;15.00;99.90
31542;DHT22;18152;49.986;8.646;2022-10-16T00:23:39;15.00;99.90
31542;DHT22;18152;49.986;8.646;2022-10-16T00:26:09;15.10;99.90
31542;DHT22;18152;49.986;8.646;2022-10-16T00:28:35;15.10;99.90
31542;DHT22;18152;49.986;8.646;2022-10-16T00:31:09;15.00;99.90
31542;DHT22;18152;49.986;8.646;2022-10-16T00:33:37;15.10;99.90
31542;DHT22;18152;49.986;8.646;2022-10-16T00:36:04;15.10;99.90
31542;DHT22;18152;49.986;8.646;2022-10-16T00:38:30;15.10;99.90
31542;DHT22;18152;49.986;8.646;2022-10-16T00:40:56;15.10;99.90
31542;DHT22;18152;49.986;8.646;2022-10-16T00:48:47;15.10;99.90
31542;DHT22;18152;49.986;8.646;2022-10-16T00:51:14;15.10;99.90
31542;DHT22;18152;49.986;8.646;2022-10-16T00:53:39;15.10;99.90
31542;DHT22;18152;49.986;8.646;2022-10-16T00:56:05;15.10;99.90
31542;DHT22;18152;49.986;8.646;2022-10-16T00:58:31;15.10;99.90
31542;DHT22;18152;49.986;8.646;2022-10-16T01:00:57;15.10;99.90
31542;DHT22;18152;49.986;8.646;2022-10-16T01:03:26;15.10;99.90
31542;DHT22;18152;49.986;8.646;2022-10-16T01:06:24;15.10;99.90
31542;DHT22;18152;49.986;8.646;2022-10-16T01:09:03;15.10;99.90
31542;DHT22;18152;49.986;8.646;2022-10-16T01:11:54;15.10;99.90
31542;DHT22;18152;49.986;8.646;2022-10-16T01:14:42;15.10;99.90
31542;DHT22;18152;49.986;8.646;2022-10-16T01:17:27;15.10;99.90
31542;DHT22;18152;49.986;8.646;2022-10-16T01:20:11;15.10;99.90
31542;DHT22;18152;49.986;8.646;2022-10-16T01:22:56;15.10;99.90
31542;DHT22;18152;49.986;8.646;2022-10-16T01:28:34;15.10;99.90
31542;DHT22;18152;49.986;8.646;2022-10-16T01:31:02;15.00;99.90
31542;DHT22;18152;49.986;8.646;2022-10-16T01:33:45;15.00;99.90
31542;DHT22;18152;49.986;8.646;2022-10-16T01:36:25;15.00;99.90
31542;DHT22;18152;49.986;8.646;2022-10-16T01:38:53;15.00;99.90
31542;DHT22;18152;49.986;8.646;2022-10-16T01:41:42;14.90;99.90
31542;DHT22;18152;49.986;8.646;2022-10-16T01:44:11;14.90;99.90
31542;DHT22;18152;49.986;8.646;2022-10-16T01:46:41;14.90;99.90
31542;DHT22;18152;49.986;8.646;2022-10-16T01:49:09;14.90;99.90
31542;DHT22;18152;49.986;8.646;2022-10-16T01:51:37;14.80;99.90
31542;DHT22;18152;49.986;8.646;2022-10-16T01:54:05;14.80;99.90
31542;DHT22;18152;49.986;8.646;2022-10-16T01:56:32;14.80;99.90
31542;DHT22;18152;49.986;8.646;2022-10-16T01:59:09;14.80;99.90
31542;DHT22;18152;49.986;8.646;2022-10-16T02:01:39;14.80;99.90
31542;DHT22;18152;49.986;8.646;2022-10-16T02:04:26;14.70;99.90
31542;DHT22;18152;49.986;8.646;2022-10-16T02:06:53;14.70;99.90
31542;DHT22;18152;49.986;8.646;2022-10-16T02:09:19;14.70;99.90
31542;DHT22;18152;49.986;8.646;2022-10-16T02:11:45;14.70;99.90
31542;DHT22;18152;49.986;8.646;2022-10-16T02:14:11;14.70;99.90
31542;DHT22;18152;49.986;8.646;2022-10-16T02:16:44;14.70;99.90
31542;DHT22;18152;49.986;8.646;2022-10-16T02:19:10;14.70;99.90
31542;DHT22;18152;49.986;8.646;2022-10-16T02:21:47;14.70;99.90
31542;DHT22;18152;49.986;8.646;2022-10-16T02:29:38;14.70;99.90
31542;DHT22;18152;49.986;8.646;2022-10-16T02:32:06;14.70;99.90
31542;DHT22;18152;49.986;8.646;2022-10-16T02:34:33;14.80;99.90
31542;DHT22;18152;49.986;8.646;2022-10-16T02:37:01;14.80;99.90
31542;DHT22;18152;49.986;8.646;2022-10-16T02:39:29;14.80;99.90
31542;DHT22;18152;49.986;8.646;2022-10-16T02:41:55;14.80;99.90
31542;DHT22;18152;49.986;8.646;2022-10-16T02:44:20;14.80;99.90
31542;DHT22;18152;49.986;8.646;2022-10-16T02:46:46;14.80;99.90
31542;DHT22;18152;49.986;8.646;2022-10-16T02:49:11;14.80;99.90
31542;DHT22;18152;49.986;8.646;2022-10-16T02:51:37;14.80;99.90
31542;DHT22;18152;49.986;8.646;2022-10-16T02:54:03;14.80;99.90
31542;DHT22;18152;49.986;8.646;2022-10-16T02:56:29;14.80;99.90
31542;DHT22;18152;49.986;8.646;2022-10-16T02:58:55;14.80;99.90
31542;DHT22;18152;49.986;8.646;2022-10-16T03:01:21;14.80;99.90
31542;DHT22;18152;49.986;8.646;2022-10-16T03:03:46;14.80;99.90
31542;DHT22;18152;49.986;8.646;2022-10-16T03:06:12;14.80;99.90
31542;DHT22;18152;49.986;8.646;2022-10-16T03:08:37;14.80;99.90
31542;DHT22;18152;49.986;8.646;2022-10-16T03:11:03;14.80;99.90
31542;DHT22;18152;49.986;8.646;2022-10-16T03:13:28;14.80;99.90
31542;DHT22;18152;49.986;8.646;2022-10-16T03:15:54;14.80;99.90
31542;DHT22;18152;49.986;8.646;2022-10-16T03:18:19;14.80;99.90
31542;DHT22;18152;49.986;8.646;2022-10-16T03:20:45;14.80;99.90
31542;DHT22;18152;49.986;8.646;2022-10-16T03:23:10;14.80;99.90
31542;DHT22;18152;49.986;8.646;2022-10-16T03:25:36;14.80;99.90
31542;DHT22;18152;49.986;8.646;2022-10-16T03:28:02;14.80;99.90
31542;DHT22;18152;49.986;8.646;2022-10-16T03:30:28;14.80;99.90
31542;DHT22;18152;49.986;8.646;2022-10-16T03:32:54;14.90;99.90
31542;DHT22;18152;49.986;8.646;2022-10-16T03:35:20;14.80;99.90
31542;DHT22;18152;49.986;8.646;2022-10-16T03:37:46;14.90;99.90
31542;DHT22;18152;49.986;8.646;2022-10-16T03:40:13;14.90;99.90
31542;DHT22;18152;49.986;8.646;2022-10-16T03:42:38;14.80;99.90
31542;DHT22;18152;49.986;8.646;2022-10-16T03:45:05;14.90;99.90
31542;DHT22;18152;49.986;8.646;2022-10-16T03:47:31;14.90;99.90
31542;DHT22;18152;49.986;8.646;2022-10-16T03:49:58;14.90;99.90
31542;DHT22;18152;49.986;8.646;2022-10-16T03:52:24;14.90;99.90
31542;DHT22;18152;49.986;8.646;2022-10-16T03:54:50;14.90;99.90
31542;DHT22;18152;49.986;8.646;2022-10-16T03:57:16;14.90;99.90
31542;DHT22;18152;49.986;8.646;2022-10-16T03:59:41;14.90;99.90
31542;DHT22;18152;49.986;8.646;2022-10-16T04:02:07;14.90;99.90
31542;DHT22;18152;49.986;8.646;2022-10-16T04:04:34;14.90;99.90
31542;DHT22;18152;49.986;8.646;2022-10-16T04:06:59;14.90;99.90
31542;DHT22;18152;49.986;8.646;2022-10-16T04:09:25;14.90;99.90
31542;DHT22;18152;49.986;8.646;2022-10-16T04:11:50;14.90;99.90
31542;DHT22;18152;49.986;8.646;2022-10-16T04:14:16;14.80;99.90
31542;DHT22;18152;49.986;8.646;2022-10-16T04:16:41;14.80;99.90
31542;DHT22;18152;49.986;8.646;2022-10-16T04:19:08;14.90;99.90
31542;DHT22;18152;49.986;8.646;2022-10-16T04:21:34;14.80;99.90
31542;DHT22;18152;49.986;8.646;2022-10-16T04:23:59;14.90;99.90
31542;DHT22;18152;49.986;8.646;2022-10-16T04:26:25;14.90;99.90
31542;DHT22;18152;49.986;8.646;2022-10-16T04:28:51;14.90;99.90
31542;DHT22;18152;49.986;8.646;2022-10-16T04:31:16;14.90;99.90
31542;DHT22;18152;49.986;8.646;2022-10-16T04:33:45;14.90;99.90
31542;DHT22;18152;49.986;8.646;2022-10-16T04:36:10;14.80;99.90
31542;DHT22;18152;49.986;8.646;2022-10-16T04:38:36;14.80;99.90
31542;DHT22;18152;49.986;8.646;2022-10-16T04:41:03;14.80;99.90
31542;DHT22;18152;49.986;8.646;2022-10-16T04:43:28;14.80;99.90
31542;DHT22;18152;49.986;8.646;2022-10-16T04:45:54;14.90;99.90
31542;DHT22;18152;49.986;8.646;2022-10-16T04:48:20;14.80;99.90
31542;DHT22;18152;49.986;8.646;2022-10-16T04:50:45;14.80;99.90
31542;DHT22;18152;49.986;8.646;2022-10-16T04:53:11;14.80;99.90
31542;DHT22;18152;49.986;8.646;2022-10-16T04:55:37;14.80;99.90
31542;DHT22;18152;49.986;8.646;2022-10-16T04:58:03;14.80;99.90
31542;DHT22;18152;49.986;8.646;2022-10-16T05:00:29;14.80;99.90
31542;DHT22;18152;49.986;8.646;2022-10-16T05:02:55;14.80;99.90
31542;DHT22;18152;49.986;8.646;2022-10-16T05:05:20;14.80;99.90
31542;DHT22;18152;49.986;8.646;2022-10-16T05:07:47;14.80;99.90
31542;DHT22;18152;49.986;8.646;2022-10-16T05:10:13;14.70;99.90
31542;DHT22;18152;49.986;8.646;2022-10-16T05:12:38;14.80;99.90
31542;DHT22;18152;49.986;8.646;2022-10-16T05:15:04;14.80;99.90
31542;DHT22;18152;49.986;8.646;2022-10-16T05:17:30;14.80;99.90
31542;DHT22;18152;49.986;8.646;2022-10-16T05:19:56;14.80;99.90
31542;DHT22;18152;49.986;8.646;2022-10-16T05:22:21;14.80;99.90
31542;DHT22;18152;49.986;8.646;2022-10-16T05:24:47;14.80;99.90
31542;DHT22;18152;49.986;8.646;2022-10-16T05:27:13;14.80;99.90
31542;DHT22;18152;49.986;8.646;2022-10-16T05:29:45;14.80;99.90
31542;DHT22;18152;49.986;8.646;2022-10-16T05:32:12;14.80;99.90
31542;DHT22;18152;49.986;8.646;2022-10-16T05:34:37;14.80;99.90
31542;DHT22;18152;49.986;8.646;2022-10-16T05:37:03;14.80;99.90
31542;DHT22;18152;49.986;8.646;2022-10-16T05:39:28;14.80;99.90
31542;DHT22;18152;49.986;8.646;2022-10-16T05:41:54;14.80;99.90
31542;DHT22;18152;49.986;8.646;2022-10-16T05:44:20;14.80;99.90
31542;DHT22;18152;49.986;8.646;2022-10-16T05:46:46;14.80;99.90
31542;DHT22;18152;49.986;8.646;2022-10-16T05:49:12;14.80;99.90
31542;DHT22;18152;49.986;8.646;2022-10-16T05:51:38;14.70;99.90
31542;DHT22;18152;49.986;8.646;2022-10-16T05:54:03;14.70;99.90
31542;DHT22;18152;49.986;8.646;2022-10-16T05:56:29;14.70;99.90
31542;DHT22;18152;49.986;8.646;2022-10-16T05:58:54;14.80;99.90
31542;DHT22;18152;49.986;8.646;2022-10-16T06:01:20;14.70;99.90
31542;DHT22;18152;49.986;8.646;2022-10-16T06:03:50;14.70;99.90
31542;DHT22;18152;49.986;8.646;2022-10-16T06:06:23;14.70;99.90
31542;DHT22;18152;49.986;8.646;2022-10-16T06:08:51;14.70;99.90
31542;DHT22;18152;49.986;8.646;2022-10-16T06:11:22;14.70;99.90
31542;DHT22;18152;49.986;8.646;2022-10-16T06:13:58;14.70;99.90
31542;DHT22;18152;49.986;8.646;2022-10-16T06:16:26;14.70;99.90
31542;DHT22;18152;49.986;8.646;2022-10-16T06:18:53;14.70;99.90
31542;DHT22;18152;49.986;8.646;2022-10-16T06:21:24;14.70;99.90
31542;DHT22;18152;49.986;8.646;2022-10-16T06:23:50;14.80;99.90
31542;DHT22;18152;49.986;8.646;2022-10-16T06:26:19;14.80;99.90
31542;DHT22;18152;49.986;8.646;2022-10-16T06:28:45;14.80;99.90
31542;DHT22;18152;49.986;8.646;2022-10-16T06:31:12;14.80;99.90
31542;DHT22;18152;49.986;8.646;2022-10-16T06:33:38;14.80;99.90
31542;DHT22;18152;49.986;8.646;2022-10-16T06:36:15;14.80;99.90
31542;DHT22;18152;49.986;8.646;2022-10-16T06:38:41;14.90;99.90
31542;DHT22;18152;49.986;8.646;2022-10-16T06:41:09;14.90;99.90
31542;DHT22;18152;49.986;8.646;2022-10-16T06:43:35;14.90;99.90
31542;DHT22;18152;49.986;8.646;2022-10-16T06:46:01;14.90;99.90
31542;DHT22;18152;49.986;8.646;2022-10-16T06:48:28;14.90;99.90
31542;DHT22;18152;49.986;8.646;2022-10-16T06:51:05;14.90;99.90
31542;DHT22;18152;49.986;8.646;2022-10-16T06:53:33;14.90;99.90
31542;DHT22;18152;49.986;8.646;2022-10-16T06:56:08;14.90;99.90
31542;DHT22;18152;49.986;8.646;2022-10-16T06:58:33;14.90;99.90
31542;DHT22;18152;49.986;8.646;2022-10-16T07:00:59;15.00;99.90
31542;DHT22;18152;49.986;8.646;2022-10-16T07:03:24;15.00;99.90
31542;DHT22;18152;49.986;8.646;2022-10-16T07:05:50;15.10;99.90
31542;DHT22;18152;49.986;8.646;2022-10-16T07:08:15;15.10;99.90
31542;DHT22;18152;49.986;8.646;2022-10-16T07:10:41;15.10;99.90
31542;DHT22;18152;49.986;8.646;2022-10-16T07:13:07;15.20;99.90
31542;DHT22;18152;49.986;8.646;2022-10-16T07:15:38;15.20;99.90
31542;DHT22;18152;49.986;8.646;2022-10-16T07:18:04;15.20;99.90
31542;DHT22;18152;49.986;8.646;2022-10-16T07:20:29;15.30;99.90
31542;DHT22;18152;49.986;8.646;2022-10-16T07:22:55;15.30;99.90
31542;DHT22;18152;49.986;8.646;2022-10-16T07:25:20;15.30;99.90
31542;DHT22;18152;49.986;8.646;2022-10-16T07:27:46;15.30;99.90
31542;DHT22;18152;49.986;8.646;2022-10-16T07:30:11;15.30;99.90
31542;DHT22;18152;49.986;8.646;2022-10-16T07:32:37;15.40;99.90
31542;DHT22;18152;49.986;8.646;2022-10-16T07:35:03;15.30;99.90
31542;DHT22;18152;49.986;8.646;2022-10-16T07:37:29;15.30;99.90
31542;DHT22;18152;49.986;8.646;2022-10-16T07:39:54;15.40;99.90
31542;DHT22;18152;49.986;8.646;2022-10-16T07:42:20;15.40;99.90
31542;DHT22;18152;49.986;8.646;2022-10-16T07:44:46;15.40;99.90
31542;DHT22;18152;49.986;8.646;2022-10-16T07:47:11;15.40;99.90
31542;DHT22;18152;49.986;8.646;2022-10-16T07:49:37;15.30;99.90
31542;DHT22;18152;49.986;8.646;2022-10-16T07:52:03;15.30;99.90
31542;DHT22;18152;49.986;8.646;2022-10-16T07:54:28;15.30;99.90
31542;DHT22;18152;49.986;8.646;2022-10-16T07:56:54;15.30;99.90
31542;DHT22;18152;49.986;8.646;2022-10-16T07:59:19;15.30;99.90
31542;DHT22;18152;49.986;8.646;2022-10-16T08:01:45;15.40;99.90
31542;DHT22;18152;49.986;8.646;2022-10-16T08:04:10;15.40;99.90
31542;DHT22;18152;49.986;8.646;2022-10-16T08:06:38;15.40;99.90
31542;DHT22;18152;49.986;8.646;2022-10-16T08:09:04;15.40;99.90
31542;DHT22;18152;49.986;8.646;2022-10-16T08:11:30;15.40;99.90
31542;DHT22;18152;49.986;8.646;2022-10-16T08:13:56;15.40;99.90
31542;DHT22;18152;49.986;8.646;2022-10-16T08:16:21;15.50;99.90
31542;DHT22;18152;49.986;8.646;2022-10-16T08:18:47;15.50;99.90
31542;DHT22;18152;49.986;8.646;2022-10-16T08:21:15;15.50;99.90
31542;DHT22;18152;49.986;8.646;2022-10-16T08:23:41;15.50;99.90
31542;DHT22;18152;49.986;8.646;2022-10-16T08:26:08;15.60;99.90
31542;DHT22;18152;49.986;8.646;2022-10-16T08:28:34;15.60;99.90
31542;DHT22;18152;49.986;8.646;2022-10-16T08:31:13;15.60;99.90
31542;DHT22;18152;49.986;8.646;2022-10-16T08:33:42;15.60;99.90
31542;DHT22;18152;49.986;8.646;2022-10-16T08:36:10;15.60;99.90
31542;DHT22;18152;49.986;8.646;2022-10-16T08:38:36;15.60;99.90
31542;DHT22;18152;49.986;8.646;2022-10-16T08:43:54;15.60;99.90
31542;DHT22;18152;49.986;8.646;2022-10-16T08:47:03;15.60;99.90
31542;DHT22;18152;49.986;8.646;2022-10-16T08:49:31;15.60;99.90
31542;DHT22;18152;49.986;8.646;2022-10-16T08:51:57;15.60;99.90
31542;DHT22;18152;49.986;8.646;2022-10-16T08:54:40;15.70;99.90
31542;DHT22;18152;49.986;8.646;2022-10-16T08:57:17;15.80;99.90
31542;DHT22;18152;49.986;8.646;2022-10-16T08:59:43;15.80;99.90
31542;DHT22;18152;49.986;8.646;2022-10-16T09:02:32;15.80;99.90
31542;DHT22;18152;49.986;8.646;2022-10-16T09:07:41;15.90;99.90
31542;DHT22;18152;49.986;8.646;2022-10-16T09:13:14;15.90;99.90
31542;DHT22;18152;49.986;8.646;2022-10-16T09:15:51;15.90;99.90
31542;DHT22;18152;49.986;8.646;2022-10-16T09:23:29;16.00;99.90
31542;DHT22;18152;49.986;8.646;2022-10-16T09:25:58;16.10;99.90
31542;DHT22;18152;49.986;8.646;2022-10-16T09:28:24;16.10;99.90
31542;DHT22;18152;49.986;8.646;2022-10-16T09:30:49;16.10;99.90
31542;DHT22;18152;49.986;8.646;2022-10-16T09:33:17;16.10;99.90
31542;DHT22;18152;49.986;8.646;2022-10-16T09:35:44;16.10;99.90
31542;DHT22;18152;49.986;8.646;2022-10-16T09:40:54;16.10;99.90
31542;DHT22;18152;49.986;8.646;2022-10-16T09:46:08;16.30;99.90
31542;DHT22;18152;49.986;8.646;2022-10-16T09:48:48;16.40;99.90
31542;DHT22;18152;49.986;8.646;2022-10-16T09:51:23;16.50;99.90
31542;DHT22;18152;49.986;8.646;2022-10-16T09:53:49;16.60;99.90
31542;DHT22;18152;49.986;8.646;2022-10-16T09:56:28;16.70;99.90
31542;DHT22;18152;49.986;8.646;2022-10-16T09:58:56;16.90;99.90
31542;DHT22;18152;49.986;8.646;2022-10-16T10:01:37;17.00;99.90
31542;DHT22;18152;49.986;8.646;2022-10-16T10:04:04;17.20;99.90
31542;DHT22;18152;49.986;8.646;2022-10-16T10:06:33;17.20;99.90
31542;DHT22;18152;49.986;8.646;2022-10-16T10:09:21;17.20;99.90
31542;DHT22;18152;49.986;8.646;2022-10-16T10:11:51;17.20;99.90
31542;DHT22;18152;49.986;8.646;2022-10-16T10:14:20;17.20;99.90
31542;DHT22;18152;49.986;8.646;2022-10-16T10:16:47;17.20;99.90
31542;DHT22;18152;49.986;8.646;2022-10-16T10:19:18;17.10;99.90
31542;DHT22;18152;49.986;8.646;2022-10-16T10:21:44;17.10;99.90
31542;DHT22;18152;49.986;8.646;2022-10-16T10:24:12;17.10;99.90
31542;DHT22;18152;49.986;8.646;2022-10-16T10:26:39;17.20;99.90
31542;DHT22;18152;49.986;8.646;2022-10-16T10:29:14;17.20;99.90
31542;DHT22;18152;49.986;8.646;2022-10-16T10:37:51;17.50;99.90
31542;DHT22;18152;49.986;8.646;2022-10-16T10:43:22;17.80;99.90
31542;DHT22;18152;49.986;8.646;2022-10-16T10:45:54;17.80;99.90
31542;DHT22;18152;49.986;8.646;2022-10-16T10:48:24;17.60;99.90
31542;DHT22;18152;49.986;8.646;2022-10-16T10:51:05;17.50;99.90
31542;DHT22;18152;49.986;8.646;2022-10-16T10:53:45;17.40;99.90
31542;DHT22;18152;49.986;8.646;2022-10-16T10:56:45;17.50;99.90
31542;DHT22;18152;49.986;8.646;2022-10-16T11:07:39;18.00;99.90
31542;DHT22;18152;49.986;8.646;2022-10-16T11:10:27;18.00;99.90
31542;DHT22;18152;49.986;8.646;2022-10-16T11:13:11;18.00;99.90
31542;DHT22;18152;49.986;8.646;2022-10-16T11:15:43;18.20;99.90
31542;DHT22;18152;49.986;8.646;2022-10-16T11:18:30;18.20;99.90
31542;DHT22;18152;49.986;8.646;2022-10-16T11:21:09;18.10;99.90
31542;DHT22;18152;49.986;8.646;2022-10-16T11:26:34;18.10;99.90
31542;DHT22;18152;49.986;8.646;2022-10-16T11:29:02;18.20;99.90
31542;DHT22;18152;49.986;8.646;2022-10-16T11:31:38;18.20;99.90
31542;DHT22;18152;49.986;8.646;2022-10-16T11:34:31;18.20;99.90
31542;DHT22;18152;49.986;8.646;2022-10-16T11:36:59;18.50;99.90
31542;DHT22;18152;49.986;8.646;2022-10-16T11:39:30;18.40;99.90
31542;DHT22;18152;49.986;8.646;2022-10-16T11:42:03;18.30;99.90
31542;DHT22;18152;49.986;8.646;2022-10-16T11:45:22;18.20;99.90
31542;DHT22;18152;49.986;8.646;2022-10-16T11:53:41;18.50;99.90
31542;DHT22;18152;49.986;8.646;2022-10-16T11:56:08;18.50;99.90
31542;DHT22;18152;49.986;8.646;2022-10-16T12:04:24;18.70;99.90
31542;DHT22;18152;49.986;8.646;2022-10-16T12:07:04;18.90;99.90
31542;DHT22;18152;49.986;8.646;2022-10-16T12:09:32;19.00;99.90
31542;DHT22;18152;49.986;8.646;2022-10-16T12:12:00;19.10;99.90
31542;DHT22;18152;49.986;8.646;2022-10-16T12:14:35;19.00;99.90
31542;DHT22;18152;49.986;8.646;2022-10-16T12:17:34;19.50;99.90
31542;DHT22;18152;49.986;8.646;2022-10-16T12:22:51;20.10;99.90
31542;DHT22;18152;49.986;8.646;2022-10-16T12:25:32;19.90;99.90
31542;DHT22;18152;49.986;8.646;2022-10-16T12:28:04;19.80;99.90
31542;DHT22;18152;49.986;8.646;2022-10-16T12:30:34;20.30;99.90
31542;DHT22;18152;49.986;8.646;2022-10-16T12:33:05;20.40;99.90
31542;DHT22;18152;49.986;8.646;2022-10-16T12:35:42;21.10;99.90
31542;DHT22;18152;49.986;8.646;2022-10-16T12:38:17;21.50;99.90
31542;DHT22;18152;49.986;8.646;2022-10-16T12:40:44;21.70;99.90
31542;DHT22;18152;49.986;8.646;2022-10-16T12:43:13;21.10;99.90
31542;DHT22;18152;49.986;8.646;2022-10-16T12:46:02;20.80;99.90
31542;DHT22;18152;49.986;8.646;2022-10-16T12:48:28;20.40;99.90
31542;DHT22;18152;49.986;8.646;2022-10-16T12:50:54;20.00;99.90
31542;DHT22;18152;49.986;8.646;2022-10-16T12:53:26;19.60;99.90
31542;DHT22;18152;49.986;8.646;2022-10-16T12:58:49;19.00;99.90
31542;DHT22;18152;49.986;8.646;2022-10-16T13:06:47;18.60;99.90
31542;DHT22;18152;49.986;8.646;2022-10-16T13:09:29;18.60;99.90
31542;DHT22;18152;49.986;8.646;2022-10-16T13:20:40;18.40;99.90
31542;DHT22;18152;49.986;8.646;2022-10-16T13:26:05;18.30;99.90
31542;DHT22;18152;49.986;8.646;2022-10-16T13:28:34;18.30;99.90
31542;DHT22;18152;49.986;8.646;2022-10-16T13:31:02;18.30;99.90
31542;DHT22;18152;49.986;8.646;2022-10-16T13:33:40;18.40;99.90
31542;DHT22;18152;49.986;8.646;2022-10-16T13:36:22;18.40;99.90
31542;DHT22;18152;49.986;8.646;2022-10-16T13:38:48;18.50;99.90
31542;DHT22;18152;49.986;8.646;2022-10-16T13:41:24;18.50;99.90
31542;DHT22;18152;49.986;8.646;2022-10-16T13:43:52;18.50;99.90
31542;DHT22;18152;49.986;8.646;2022-10-16T13:46:22;18.50;99.90
31542;DHT22;18152;49.986;8.646;2022-10-16T13:49:00;18.50;99.90
31542;DHT22;18152;49.986;8.646;2022-10-16T13:51:26;18.40;99.90
31542;DHT22;18152;49.986;8.646;2022-10-16T13:53:54;18.30;99.90
31542;DHT22;18152;49.986;8.646;2022-10-16T13:56:21;18.40;99.90
31542;DHT22;18152;49.986;8.646;2022-10-16T13:59:24;18.30;99.90
31542;DHT22;18152;49.986;8.646;2022-10-16T14:01:53;18.30;99.90
31542;DHT22;18152;49.986;8.646;2022-10-16T14:04:19;18.20;99.90
31542;DHT22;18152;49.986;8.646;2022-10-16T14:06:49;18.20;99.90
31542;DHT22;18152;49.986;8.646;2022-10-16T14:09:23;18.10;99.90
31542;DHT22;18152;49.986;8.646;2022-10-16T14:11:57;18.10;99.90
31542;DHT22;18152;49.986;8.646;2022-10-16T14:14:24;18.00;99.90
31542;DHT22;18152;49.986;8.646;2022-10-16T14:16:52;18.00;99.90
31542;DHT22;18152;49.986;8.646;2022-10-16T14:19:24;18.00;99.90
31542;DHT22;18152;49.986;8.646;2022-10-16T14:21:51;18.00;99.90
31542;DHT22;18152;49.986;8.646;2022-10-16T14:24:32;17.90;99.90
31542;DHT22;18152;49.986;8.646;2022-10-16T14:26:58;18.00;99.90
31542;DHT22;18152;49.986;8.646;2022-10-16T14:29:26;18.00;99.90
31542;DHT22;18152;49.986;8.646;2022-10-16T14:32:00;18.00;99.90
31542;DHT22;18152;49.986;8.646;2022-10-16T14:34:37;18.10;99.90
31542;DHT22;18152;49.986;8.646;2022-10-16T14:37:26;18.20;99.90
31542;DHT22;18152;49.986;8.646;2022-10-16T14:39:53;18.20;99.90
31542;DHT22;18152;49.986;8.646;2022-10-16T14:42:21;18.30;99.90
31542;DHT22;18152;49.986;8.646;2022-10-16T14:44:50;18.30;99.90
31542;DHT22;18152;49.986;8.646;2022-10-16T14:47:20;18.30;99.90
31542;DHT22;18152;49.986;8.646;2022-10-16T14:49:49;18.20;99.90
31542;DHT22;18152;49.986;8.646;2022-10-16T14:52:15;18.20;99.90
31542;DHT22;18152;49.986;8.646;2022-10-16T14:54:41;18.20;99.90
31542;DHT22;18152;49.986;8.646;2022-10-16T14:57:17;18.20;99.90
31542;DHT22;18152;49.986;8.646;2022-10-16T14:59:43;18.10;99.90
31542;DHT22;18152;49.986;8.646;2022-10-16T15:02:27;18.10;99.90
31542;DHT22;18152;49.986;8.646;2022-10-16T15:04:53;18.10;99.90
31542;DHT22;18152;49.986;8.646;2022-10-16T15:07:19;18.00;99.90
31542;DHT22;18152;49.986;8.646;2022-10-16T15:09:45;18.00;99.90
31542;DHT22;18152;49.986;8.646;2022-10-16T15:12:10;18.10;99.90
31542;DHT22;18152;49.986;8.646;2022-10-16T15:14:36;18.10;99.90
31542;DHT22;18152;49.986;8.646;2022-10-16T15:17:02;18.10;99.90
31542;DHT22;18152;49.986;8.646;2022-10-16T15:19:28;18.00;99.90
31542;DHT22;18152;49.986;8.646;2022-10-16T15:21:53;18.10;99.90
31542;DHT22;18152;49.986;8.646;2022-10-16T15:24:19;18.10;99.90
31542;DHT22;18152;49.986;8.646;2022-10-16T15:26:44;18.10;99.90
31542;DHT22;18152;49.986;8.646;2022-10-16T15:29:12;18.10;99.90
31542;DHT22;18152;49.986;8.646;2022-10-16T15:31:38;18.10;99.90
31542;DHT22;18152;49.986;8.646;2022-10-16T15:34:04;18.20;99.90
31542;DHT22;18152;49.986;8.646;2022-10-16T15:36:35;18.20;99.90
31542;DHT22;18152;49.986;8.646;2022-10-16T15:39:12;18.20;99.90
31542;DHT22;18152;49.986;8.646;2022-10-16T15:41:38;18.10;99.90
31542;DHT22;18152;49.986;8.646;2022-10-16T15:44:04;18.00;99.90
31542;DHT22;18152;49.986;8.646;2022-10-16T15:46:29;18.00;99.90
31542;DHT22;18152;49.986;8.646;2022-10-16T15:48:57;18.00;99.90
31542;DHT22;18152;49.986;8.646;2022-10-16T15:51:24;18.00;99.90
31542;DHT22;18152;49.986;8.646;2022-10-16T15:53:52;17.90;99.90
31542;DHT22;18152;49.986;8.646;2022-10-16T15:56:19;17.80;99.90
31542;DHT22;18152;49.986;8.646;2022-10-16T15:58:44;17.80;99.90
31542;DHT22;18152;49.986;8.646;2022-10-16T16:01:10;17.70;99.90
31542;DHT22;18152;49.986;8.646;2022-10-16T16:03:38;17.60;99.90
31542;DHT22;18152;49.986;8.646;2022-10-16T16:06:07;17.60;99.90
31542;DHT22;18152;49.986;8.646;2022-10-16T16:08:34;17.60;99.90
31542;DHT22;18152;49.986;8.646;2022-10-16T16:11:01;17.50;99.90
31542;DHT22;18152;49.986;8.646;2022-10-16T16:13:27;17.50;99.90
31542;DHT22;18152;49.986;8.646;2022-10-16T16:15:53;17.40;99.90
31542;DHT22;18152;49.986;8.646;2022-10-16T16:18:18;17.40;99.90
31542;DHT22;18152;49.986;8.646;2022-10-16T16:20:44;17.40;99.90
31542;DHT22;18152;49.986;8.646;2022-10-16T16:23:10;17.40;99.90
31542;DHT22;18152;49.986;8.646;2022-10-16T16:25:36;17.30;99.90
31542;DHT22;18152;49.986;8.646;2022-10-16T16:28:01;17.30;99.90
31542;DHT22;18152;49.986;8.646;2022-10-16T16:30:27;17.20;99.90
31542;DHT22;18152;49.986;8.646;2022-10-16T16:32:52;17.20;99.90
31542;DHT22;18152;49.986;8.646;2022-10-16T16:35:18;17.20;99.90
31542;DHT22;18152;49.986;8.646;2022-10-16T16:37:44;17.20;99.90
31542;DHT22;18152;49.986;8.646;2022-10-16T16:40:09;17.10;99.90
31542;DHT22;18152;49.986;8.646;2022-10-16T16:42:35;17.10;99.90
31542;DHT22;18152;49.986;8.646;2022-10-16T16:45:00;17.00;99.90
31542;DHT22;18152;49.986;8.646;2022-10-16T16:47:26;17.00;99.90
31542;DHT22;18152;49.986;8.646;2022-10-16T16:49:51;16.90;99.90
31542;DHT22;18152;49.986;8.646;2022-10-16T16:52:17;16.90;99.90
31542;DHT22;18152;49.986;8.646;2022-10-16T16:54:43;16.80;99.90
31542;DHT22;18152;49.986;8.646;2022-10-16T16:57:10;16.80;99.90
31542;DHT22;18152;49.986;8.646;2022-10-16T16:59:36;16.80;99.90
31542;DHT22;18152;49.986;8.646;2022-10-16T17:02:02;16.70;99.90
31542;DHT22;18152;49.986;8.646;2022-10-16T17:04:27;16.70;99.90
31542;DHT22;18152;49.986;8.646;2022-10-16T17:06:54;16.60;99.90
31542;DHT22;18152;49.986;8.646;2022-10-16T17:09:20;16.60;99.90
31542;DHT22;18152;49.986;8.646;2022-10-16T17:11:46;16.60;99.90